Maersk Visby — 9V8827 — position and weather

sailwx.info

Track history (hours):
 
Tides and Currents Weather Stations Pressure Air Temp Water Temp Dewpoint Dewpoint Depression Visibility Wind Speed Wind Dir Waves Ship Positions

Maersk Visby

Last reported at 2016-Jul-23 00:16 UTC. Time now 2016-Jul-29 05:56 UTC.
Position S 33°39' E 018°07'.

Length 180 m; draft 9.5 m.

Type: Ship (hazmat cat A). MMSI: 564979000.

Date/timePositionNaut miles runAvg speedWind from/ knotsBaromVisibWave heightAir tempDewpointWater temp
2016-Jul-23 00:16S 33°39' E 018°07'1014.5
2016-Jul-22 23:33S 33°46' E 018°16'1212.1
2016-Jul-22 22:33S 33°55' E 018°26'0 0.2
2016-Jul-22 21:28S 33°55' E 018°26'0 0.0
2016-Jul-22 20:34S 33°55' E 018°26'0 0.0
2016-Jul-22 19:30S 33°55' E 018°26'0 0.0
2016-Jul-22 18:34S 33°55' E 018°26'0 0.0
2016-Jul-22 17:34S 33°55' E 018°26'0 0.0
2016-Jul-22 16:33S 33°55' E 018°26'0 0.0
2016-Jul-22 15:34S 33°55' E 018°26'0 0.0
2016-Jul-22 14:34S 33°55' E 018°26'0 0.0
2016-Jul-22 13:33S 33°55' E 018°26'0 0.0
2016-Jul-22 12:34S 33°55' E 018°26'0 0.0
2016-Jul-22 11:31S 33°55' E 018°26'0 0.1
2016-Jul-22 10:31S 33°55' E 018°26'0 0.1
2016-Jul-22 09:34S 33°55' E 018°26'0 0.0
2016-Jul-22 08:34S 33°55' E 018°26'0 0.0
2016-Jul-22 07:31S 33°55' E 018°26'0 0.0
2016-Jul-22 05:33S 33°55' E 018°26'0 0.0
2016-Jul-22 04:33S 33°55' E 018°26'0 0.0
2016-Jul-22 03:33S 33°55' E 018°26'0 0.0
2016-Jul-22 02:33S 33°55' E 018°26'4 3.9
2016-Jul-22 01:34S 33°51' E 018°24'1 1.4
2016-Jul-22 00:30S 33°50' E 018°26'0 0.0
2016-Jul-21 23:33S 33°50' E 018°26'0 0.0
2016-Jul-21 22:33S 33°50' E 018°26'0 0.0
2016-Jul-21 21:33S 33°50' E 018°26'0 0.0
2016-Jul-21 20:33S 33°50' E 018°26'0 0.0
2016-Jul-21 19:33S 33°50' E 018°26'0 0.0
2016-Jul-21 18:33S 33°50' E 018°26'0 0.0
2016-Jul-21 17:33S 33°50' E 018°26'0 0.0
2016-Jul-21 16:33S 33°50' E 018°26'0 0.0
2016-Jul-21 15:33S 33°50' E 018°26'3 2.7
2016-Jul-21 14:33S 33°52' E 018°24'1010.3
2016-Jul-21 13:33S 33°60' E 018°16'10 9.5
2016-Jul-21 12:31S 34°10' E 018°15'  
2016-Jul-18 06:08S 30°38' E 030°40'712.2
2016-Jul-18 05:33S 30°32' E 030°44'1312.5
2016-Jul-18 04:33S 30°21' E 030°51'1212.1
2016-Jul-18 03:33S 30°10' E 030°58'1010.3
2016-Jul-18 02:33S 30°01' E 031°04'9 8.8
2016-Jul-18 01:33S 29°53' E 031°07'4 4.4
2016-Jul-18 00:32S 29°53' E 031°02'0 0.0
2016-Jul-17 23:32S 29°53' E 031°02'0 0.0
2016-Jul-17 22:32S 29°53' E 031°02'0 0.0
2016-Jul-17 21:33S 29°53' E 031°02'0 0.0
2016-Jul-17 20:33S 29°53' E 031°02'0 0.0
2016-Jul-17 19:32S 29°53' E 031°02'0 0.0
2016-Jul-17 18:32S 29°53' E 031°02'0 0.0
2016-Jul-17 17:32S 29°53' E 031°02'0 0.0
2016-Jul-17 16:32S 29°53' E 031°02'0 0.0
2016-Jul-17 15:32S 29°53' E 031°02'0 0.0
2016-Jul-17 14:32S 29°53' E 031°02'0 0.0
2016-Jul-17 13:32S 29°53' E 031°02'0 0.0
2016-Jul-17 12:32S 29°53' E 031°02'0 0.0
2016-Jul-17 11:32S 29°53' E 031°02'0 0.0
2016-Jul-17 10:32S 29°53' E 031°02'0 0.0
2016-Jul-17 09:32S 29°53' E 031°02'0 0.0
2016-Jul-17 08:29S 29°53' E 031°02'0 0.0
2016-Jul-17 07:29S 29°53' E 031°02'0 0.0
2016-Jul-17 06:32S 29°53' E 031°02'0 0.0
2016-Jul-17 04:33S 29°53' E 031°02'0 0.0
2016-Jul-17 03:27S 29°53' E 031°02'0 0.0
2016-Jul-17 02:32S 29°53' E 031°02'0 0.0
2016-Jul-17 01:32S 29°53' E 031°02'0 0.0
2016-Jul-17 00:33S 29°53' E 031°02'0 0.0
2016-Jul-16 23:32S 29°53' E 031°02'0 0.0
2016-Jul-16 22:32S 29°53' E 031°02'0 0.0
2016-Jul-16 21:32S 29°53' E 031°02'0 0.0
2016-Jul-16 20:32S 29°53' E 031°02'0 0.0
2016-Jul-16 19:32S 29°53' E 031°02'0 0.0
2016-Jul-16 18:32S 29°53' E 031°02'0 0.0
2016-Jul-16 17:33S 29°53' E 031°02'0 0.0
2016-Jul-16 16:32S 29°53' E 031°02'0 0.0
2016-Jul-16 15:32S 29°53' E 031°02'0 0.0
2016-Jul-16 14:32S 29°53' E 031°02'0 0.0
2016-Jul-16 13:32S 29°53' E 031°02'0 0.0
2016-Jul-16 12:32S 29°53' E 031°02'0 0.0
2016-Jul-16 11:32S 29°53' E 031°02'0 0.0
2016-Jul-16 10:32S 29°53' E 031°02'0 0.0
2016-Jul-16 09:32S 29°53' E 031°02'0 0.0
2016-Jul-16 08:33S 29°53' E 031°02'0 0.0
2016-Jul-16 07:33S 29°53' E 031°02'1 0.7
2016-Jul-16 06:33S 29°53' E 031°03'9 4.4
2016-Jul-16 04:32S 29°47' E 031°10'0 0.0
2016-Jul-16 03:32S 29°47' E 031°10'0 0.1
2016-Jul-16 02:32S 29°47' E 031°10'0 0.0
2016-Jul-16 01:32S 29°47' E 031°10'0 0.1
2016-Jul-16 00:32S 29°47' E 031°10'0 0.0
2016-Jul-15 23:32S 29°47' E 031°10'0 0.0
2016-Jul-15 22:32S 29°47' E 031°10'0 0.0
2016-Jul-15 21:32S 29°47' E 031°10'0 0.0
2016-Jul-15 20:32S 29°47' E 031°10'0 0.0
2016-Jul-15 19:32S 29°47' E 031°10'0 0.0
2016-Jul-15 18:32S 29°47' E 031°10'0 0.0
2016-Jul-15 17:32S 29°47' E 031°10'0 0.0
2016-Jul-15 16:32S 29°47' E 031°10'0 0.0
2016-Jul-15 15:32S 29°47' E 031°10'0 0.0
2016-Jul-15 14:32S 29°47' E 031°10'0 0.0
2016-Jul-15 13:32S 29°47' E 031°10'0 0.0
2016-Jul-15 12:32S 29°47' E 031°10'0 0.0
2016-Jul-15 11:32S 29°47' E 031°10'0 0.0
2016-Jul-15 10:32S 29°47' E 031°10'0 0.0
2016-Jul-15 09:32S 29°47' E 031°10'0 0.0
2016-Jul-15 08:32S 29°47' E 031°10'0 0.0
2016-Jul-15 07:32S 29°47' E 031°10'0 0.0
2016-Jul-15 06:32S 29°47' E 031°10'0 0.0
2016-Jul-15 05:32S 29°47' E 031°10'0 0.0
2016-Jul-15 04:26S 29°47' E 031°10'0 0.0
2016-Jul-15 03:29S 29°47' E 031°10'0 0.0
2016-Jul-15 02:32S 29°47' E 031°10'1 0.6
2016-Jul-15 01:33S 29°47' E 031°10'1111.2
2016-Jul-15 00:33S 29°58' E 031°06'1110.5
2016-Jul-14 23:33S 30°07' E 031°00'10 9.7
2016-Jul-14 22:33S 30°16' E 030°54'8 8.2
2016-Jul-14 21:33S 30°23' E 030°50'  
Track history (hours):
 
Tides and Currents Weather Stations Pressure Air Temp Water Temp Dewpoint Dewpoint Depression Visibility Wind Speed Wind Dir Waves Ship Positions

Maersk Visby

Last reported at 2016-Jul-23 00:16 UTC. Time now 2016-Jul-29 05:56 UTC.
Position S 33°39' E 018°07'.

Length 180 m; draft 9.5 m.

Type: Ship (hazmat cat A). MMSI: 564979000.

Date/timePositionNaut miles runAvg speedWind from/ knotsBaromVisibWave heightAir tempDewpointWater temp
2016-Jul-23 00:16S 33°39' E 018°07'1014.5
2016-Jul-22 23:33S 33°46' E 018°16'1212.1
2016-Jul-22 22:33S 33°55' E 018°26'0 0.2
2016-Jul-22 21:28S 33°55' E 018°26'0 0.0
2016-Jul-22 20:34S 33°55' E 018°26'0 0.0
2016-Jul-22 19:30S 33°55' E 018°26'0 0.0
2016-Jul-22 18:34S 33°55' E 018°26'0 0.0
2016-Jul-22 17:34S 33°55' E 018°26'0 0.0
2016-Jul-22 16:33S 33°55' E 018°26'0 0.0
2016-Jul-22 15:34S 33°55' E 018°26'0 0.0
2016-Jul-22 14:34S 33°55' E 018°26'0 0.0
2016-Jul-22 13:33S 33°55' E 018°26'0 0.0
2016-Jul-22 12:34S 33°55' E 018°26'0 0.0
2016-Jul-22 11:31S 33°55' E 018°26'0 0.1
2016-Jul-22 10:31S 33°55' E 018°26'0 0.1
2016-Jul-22 09:34S 33°55' E 018°26'0 0.0
2016-Jul-22 08:34S 33°55' E 018°26'0 0.0
2016-Jul-22 07:31S 33°55' E 018°26'0 0.0
2016-Jul-22 05:33S 33°55' E 018°26'0 0.0
2016-Jul-22 04:33S 33°55' E 018°26'0 0.0
2016-Jul-22 03:33S 33°55' E 018°26'0 0.0
2016-Jul-22 02:33S 33°55' E 018°26'4 3.9
2016-Jul-22 01:34S 33°51' E 018°24'1 1.4
2016-Jul-22 00:30S 33°50' E 018°26'0 0.0
2016-Jul-21 23:33S 33°50' E 018°26'0 0.0
2016-Jul-21 22:33S 33°50' E 018°26'0 0.0
2016-Jul-21 21:33S 33°50' E 018°26'0 0.0
2016-Jul-21 20:33S 33°50' E 018°26'0 0.0
2016-Jul-21 19:33S 33°50' E 018°26'0 0.0
2016-Jul-21 18:33S 33°50' E 018°26'0 0.0
2016-Jul-21 17:33S 33°50' E 018°26'0 0.0
2016-Jul-21 16:33S 33°50' E 018°26'0 0.0
2016-Jul-21 15:33S 33°50' E 018°26'3 2.7
2016-Jul-21 14:33S 33°52' E 018°24'1010.3
2016-Jul-21 13:33S 33°60' E 018°16'10 9.5
2016-Jul-21 12:31S 34°10' E 018°15'  
2016-Jul-18 06:08S 30°38' E 030°40'712.2
2016-Jul-18 05:33S 30°32' E 030°44'1312.5
2016-Jul-18 04:33S 30°21' E 030°51'1212.1
2016-Jul-18 03:33S 30°10' E 030°58'1010.3
2016-Jul-18 02:33S 30°01' E 031°04'9 8.8
2016-Jul-18 01:33S 29°53' E 031°07'4 4.4
2016-Jul-18 00:32S 29°53' E 031°02'0 0.0
2016-Jul-17 23:32S 29°53' E 031°02'0 0.0
2016-Jul-17 22:32S 29°53' E 031°02'0 0.0
2016-Jul-17 21:33S 29°53' E 031°02'0 0.0
2016-Jul-17 20:33S 29°53' E 031°02'0 0.0
2016-Jul-17 19:32S 29°53' E 031°02'0 0.0
2016-Jul-17 18:32S 29°53' E 031°02'0 0.0
2016-Jul-17 17:32S 29°53' E 031°02'0 0.0
2016-Jul-17 16:32S 29°53' E 031°02'0 0.0
2016-Jul-17 15:32S 29°53' E 031°02'0 0.0
2016-Jul-17 14:32S 29°53' E 031°02'0 0.0
2016-Jul-17 13:32S 29°53' E 031°02'0 0.0
2016-Jul-17 12:32S 29°53' E 031°02'0 0.0
2016-Jul-17 11:32S 29°53' E 031°02'0 0.0
2016-Jul-17 10:32S 29°53' E 031°02'0 0.0
2016-Jul-17 09:32S 29°53' E 031°02'0 0.0
2016-Jul-17 08:29S 29°53' E 031°02'0 0.0
2016-Jul-17 07:29S 29°53' E 031°02'0 0.0
2016-Jul-17 06:32S 29°53' E 031°02'0 0.0
2016-Jul-17 04:33S 29°53' E 031°02'0 0.0
2016-Jul-17 03:27S 29°53' E 031°02'0 0.0
2016-Jul-17 02:32S 29°53' E 031°02'0 0.0
2016-Jul-17 01:32S 29°53' E 031°02'0 0.0
2016-Jul-17 00:33S 29°53' E 031°02'0 0.0
2016-Jul-16 23:32S 29°53' E 031°02'0 0.0
2016-Jul-16 22:32S 29°53' E 031°02'0 0.0
2016-Jul-16 21:32S 29°53' E 031°02'0 0.0
2016-Jul-16 20:32S 29°53' E 031°02'0 0.0
2016-Jul-16 19:32S 29°53' E 031°02'0 0.0
2016-Jul-16 18:32S 29°53' E 031°02'0 0.0
2016-Jul-16 17:33S 29°53' E 031°02'0 0.0
2016-Jul-16 16:32S 29°53' E 031°02'0 0.0
2016-Jul-16 15:32S 29°53' E 031°02'0 0.0
2016-Jul-16 14:32S 29°53' E 031°02'0 0.0
2016-Jul-16 13:32S 29°53' E 031°02'0 0.0
2016-Jul-16 12:32S 29°53' E 031°02'0 0.0
2016-Jul-16 11:32S 29°53' E 031°02'0 0.0
2016-Jul-16 10:32S 29°53' E 031°02'0 0.0
2016-Jul-16 09:32S 29°53' E 031°02'0 0.0
2016-Jul-16 08:33S 29°53' E 031°02'0 0.0
2016-Jul-16 07:33S 29°53' E 031°02'1 0.7
2016-Jul-16 06:33S 29°53' E 031°03'9 4.4
2016-Jul-16 04:32S 29°47' E 031°10'0 0.0
2016-Jul-16 03:32S 29°47' E 031°10'0 0.1
2016-Jul-16 02:32S 29°47' E 031°10'0 0.0
2016-Jul-16 01:32S 29°47' E 031°10'0 0.1
2016-Jul-16 00:32S 29°47' E 031°10'0 0.0
2016-Jul-15 23:32S 29°47' E 031°10'0 0.0
2016-Jul-15 22:32S 29°47' E 031°10'0 0.0
2016-Jul-15 21:32S 29°47' E 031°10'0 0.0
2016-Jul-15 20:32S 29°47' E 031°10'0 0.0
2016-Jul-15 19:32S 29°47' E 031°10'0 0.0
2016-Jul-15 18:32S 29°47' E 031°10'0 0.0
2016-Jul-15 17:32S 29°47' E 031°10'0 0.0
2016-Jul-15 16:32S 29°47' E 031°10'0 0.0
2016-Jul-15 15:32S 29°47' E 031°10'0 0.0
2016-Jul-15 14:32S 29°47' E 031°10'0 0.0
2016-Jul-15 13:32S 29°47' E 031°10'0 0.0
2016-Jul-15 12:32S 29°47' E 031°10'0 0.0
2016-Jul-15 11:32S 29°47' E 031°10'0 0.0
2016-Jul-15 10:32S 29°47' E 031°10'0 0.0
2016-Jul-15 09:32S 29°47' E 031°10'0 0.0
2016-Jul-15 08:32S 29°47' E 031°10'0 0.0
2016-Jul-15 07:32S 29°47' E 031°10'0 0.0
2016-Jul-15 06:32S 29°47' E 031°10'0 0.0
2016-Jul-15 05:32S 29°47' E 031°10'0 0.0
2016-Jul-15 04:26S 29°47' E 031°10'0 0.0
2016-Jul-15 03:29S 29°47' E 031°10'0 0.0
2016-Jul-15 02:32S 29°47' E 031°10'1 0.6
2016-Jul-15 01:33S 29°47' E 031°10'1111.2
2016-Jul-15 00:33S 29°58' E 031°06'1110.5
2016-Jul-14 23:33S 30°07' E 031°00'10 9.7
2016-Jul-14 22:33S 30°16' E 030°54'8 8.2
2016-Jul-14 21:33S 30°23' E 030°50'  

Dump ship's entire track history